Time;durP1;ratioP1;P1;durP2;ratioP2;P2;SDS_P1;SDS_P2;PMS_P1;PMS_P2;Temp;Humidity;BMP_temperature;BMP_pressure;BME280_temperature;BME280_humidity;BME280_pressure;Samples;Min_cycle;Max_cycle;Signal;HPM_P1;HPM_P2
2023/07/28 00:01:27;;;;;;;0.40;0.38;;;;;;;19.55;100.00;99458.69;5011105;28;20048;-62
2023/07/28 00:03:52;;;;;;;0.93;0.50;;;;;;;19.59;100.00;99460.06;5072005;28;20041;-63
2023/07/28 00:06:17;;;;;;;0.75;0.57;;;;;;;19.58;100.00;99460.50;5004237;28;20048;-63
2023/07/28 00:08:43;;;;;;;0.73;0.68;;;;;;;19.53;100.00;99453.63;5005469;28;20045;-62
2023/07/28 00:11:11;;;;;;;0.63;0.60;;;;;;;19.56;100.00;99462.91;5009821;28;20041;-62
2023/07/28 00:13:37;;;;;;;0.50;0.50;;;;;;;19.57;100.00;99459.75;5009120;28;20029;-63
2023/07/28 00:16:03;;;;;;;0.30;0.30;;;;;;;19.58;100.00;99463.25;5009120;28;20037;-62
2023/07/28 00:18:29;;;;;;;0.77;0.63;;;;;;;19.55;100.00;99462.16;4999497;28;20045;-62
2023/07/28 00:20:54;;;;;;;0.68;0.50;;;;;;;19.55;100.00;99464.88;5008513;28;20498;-62
2023/07/28 00:23:22;;;;;;;0.80;0.55;;;;;;;19.54;100.00;99462.59;5009463;28;20394;-62
2023/07/28 00:25:47;;;;;;;0.70;0.65;;;;;;;19.55;100.00;99459.41;5001484;28;20072;-62
2023/07/28 00:28:13;;;;;;;1.13;0.70;;;;;;;19.56;100.00;99452.00;5009077;28;20038;-62
2023/07/28 00:30:39;;;;;;;0.85;0.45;;;;;;;19.54;100.00;99454.41;5054640;28;20037;-62
2023/07/28 00:33:04;;;;;;;0.82;0.75;;;;;;;19.53;100.00;99453.63;5009009;28;20038;-62
2023/07/28 00:35:30;;;;;;;0.45;0.43;;;;;;;19.56;100.00;99452.75;4999024;28;20030;-63
2023/07/28 00:37:55;;;;;;;0.52;0.52;;;;;;;19.58;100.00;99461.28;5057615;28;20048;-63
2023/07/28 00:40:24;;;;;;;1.02;0.50;;;;;;;19.53;100.00;99450.16;5069222;28;20395;-64
2023/07/28 00:42:50;;;;;;;0.55;0.52;;;;;;;19.53;100.00;99450.16;5070994;28;20061;-63
2023/07/28 00:45:16;;;;;;;1.23;0.85;;;;;;;19.53;100.00;99450.91;5074355;28;20065;-63
2023/07/28 00:48:02;;;;;;;1.13;0.70;;;;;;;19.54;100.00;99441.53;5008513;28;20029;-63
2023/07/28 00:50:27;;;;;;;0.73;0.50;;;;;;;19.59;100.00;99440.94;5020937;28;20041;-64
2023/07/28 00:52:55;;;;;;;0.85;0.47;;;;;;;19.56;100.00;99447.31;5032510;28;20048;-63
2023/07/28 00:55:20;;;;;;;0.77;0.55;;;;;;;19.52;100.00;99441.19;5033060;28;20045;-64
2023/07/28 00:57:46;;;;;;;0.40;0.40;;;;;;;19.52;100.00;99437.69;5053533;28;20094;-64
2023/07/28 01:00:12;;;;;;;0.55;0.47;;;;;;;19.49;100.00;99442.06;5046232;28;20041;-64
2023/07/28 01:02:37;;;;;;;0.57;0.57;;;;;;;19.53;100.00;99441.97;5032201;28;20126;-64
2023/07/28 01:05:04;;;;;;;1.02;0.80;;;;;;;19.56;100.00;99444.56;5034579;28;20771;-63
2023/07/28 01:07:29;;;;;;;1.38;0.70;;;;;;;19.53;100.00;99439.97;5051673;28;20055;-64
2023/07/28 01:10:18;;;;;;;0.40;0.38;;;;;;;19.52;100.00;99438.47;5030914;28;20037;-63
2023/07/28 01:12:43;;;;;;;0.47;0.30;;;;;;;19.51;100.00;99434.19;5031417;28;20041;-63
2023/07/28 01:15:09;;;;;;;0.70;0.55;;;;;;;19.56;100.00;99439.09;5050573;28;20584;-63
2023/07/28 01:17:34;;;;;;;0.47;0.45;;;;;;;19.53;100.00;99433.78;5031799;28;20037;-64
2023/07/28 01:20:00;;;;;;;0.63;0.50;;;;;;;19.50;100.00;99440.88;5015014;28;20041;-64
2023/07/28 01:22:48;;;;;;;0.40;0.40;;;;;;;19.50;100.00;99432.69;5047266;28;20029;-64
2023/07/28 01:25:35;;;;;;;0.70;0.43;;;;;;;19.51;100.00;99436.94;5032412;28;20091;-63
2023/07/28 01:28:01;;;;;;;0.60;0.60;;;;;;;19.53;100.00;99433.78;5045025;28;20514;-63
2023/07/28 01:30:28;;;;;;;0.50;0.40;;;;;;;19.44;100.00;99429.00;5009235;28;20301;-63
2023/07/28 01:32:57;;;;;;;0.35;0.35;;;;;;;19.46;100.00;99429.31;5062072;28;20128;-63
2023/07/28 01:35:24;;;;;;;0.60;0.43;;;;;;;19.42;100.00;99423.22;5072173;28;20103;-63
2023/07/28 01:37:53;;;;;;;0.47;0.47;;;;;;;19.46;100.00;99421.13;5001591;28;20038;-64
2023/07/28 01:40:18;;;;;;;0.43;0.43;;;;;;;19.45;100.00;99422.31;5008057;28;20026;-63
2023/07/28 01:42:44;;;;;;;0.55;0.32;;;;;;;19.46;100.00;99426.59;5069954;28;20038;-65
2023/07/28 01:45:09;;;;;;;0.40;0.40;;;;;;;19.44;100.00;99420.03;5006523;28;20042;-64
2023/07/28 01:47:35;;;;;;;0.82;0.30;;;;;;;19.49;100.00;99425.69;5049930;28;20149;-64
2023/07/28 01:50:01;;;;;;;0.55;0.40;;;;;;;19.47;100.00;99421.91;5002927;28;20066;-63
2023/07/28 01:52:26;;;;;;;0.65;0.47;;;;;;;19.35;100.00;99419.97;4996244;28;20026;-64
2023/07/28 01:54:52;;;;;;;0.50;0.30;;;;;;;19.39;100.00;99426.09;5007070;28;20026;-62
2023/07/28 01:57:37;;;;;;;0.50;0.45;;;;;;;19.41;100.00;99437.31;5009159;28;20046;-63
2023/07/28 02:00:03;;;;;;;0.30;0.30;;;;;;;19.46;100.00;99431.28;5048193;28;20049;-64
2023/07/28 02:02:38;;;;;;;0.22;0.22;;;;;;;19.43;100.00;99432.19;5044170;28;20033;-69
2023/07/28 02:05:04;;;;;;;0.82;0.40;;;;;;;19.48;100.00;99428.88;5025985;28;20048;-63
2023/07/28 02:07:30;;;;;;;0.63;0.35;;;;;;;19.47;100.00;99427.34;5047126;28;20297;-63
2023/07/28 02:09:56;;;;;;;0.43;0.40;;;;;;;19.47;100.00;99430.09;5055417;28;20039;-63
2023/07/28 02:12:21;;;;;;;0.50;0.40;;;;;;;19.45;100.00;99430.50;5057926;28;20511;-63
2023/07/28 02:14:46;;;;;;;0.50;0.40;;;;;;;19.43;100.00;99430.22;5023975;28;20090;-64
2023/07/28 02:17:12;;;;;;;0.60;0.40;;;;;;;19.44;100.00;99442.66;5040301;28;20053;-64
2023/07/28 02:19:38;;;;;;;0.63;0.45;;;;;;;19.47;100.00;99438.28;5044101;28;20437;-62
2023/07/28 02:22:04;;;;;;;0.35;0.30;;;;;;;19.48;100.00;99440.56;5053538;28;20100;-64
2023/07/28 02:24:29;;;;;;;0.52;0.40;;;;;;;19.46;100.00;99440.25;5033372;28;20135;-65
2023/07/28 02:26:55;;;;;;;0.38;0.38;;;;;;;19.46;100.00;99442.19;5027145;28;20029;-65
2023/07/28 02:29:20;;;;;;;0.60;0.40;;;;;;;19.44;100.00;99433.69;5036101;28;20044;-64
2023/07/28 02:31:45;;;;;;;0.40;0.32;;;;;;;19.44;100.00;99439.16;5038528;28;20032;-64
2023/07/28 02:34:11;;;;;;;0.55;0.43;;;;;;;19.46;100.00;99436.75;5036538;28;20045;-62
2023/07/28 02:36:36;;;;;;;0.40;0.25;;;;;;;19.45;100.00;99444.16;5024671;28;20061;-63
2023/07/28 02:39:02;;;;;;;0.60;0.40;;;;;;;19.43;100.00;99443.88;4999629;28;20034;-63
2023/07/28 02:41:28;;;;;;;0.40;0.40;;;;;;;19.44;100.00;99450.06;5032338;28;20148;-64
2023/07/28 02:43:54;;;;;;;0.95;0.50;;;;;;;19.45;100.00;99457.81;5007454;28;20501;-64
2023/07/28 02:46:20;;;;;;;0.30;0.30;;;;;;;19.46;100.00;99458.59;4995994;28;20029;-65
2023/07/28 02:48:45;;;;;;;0.88;0.30;;;;;;;19.44;100.00;99450.84;5007743;28;20038;-63
2023/07/28 02:51:11;;;;;;;0.80;0.50;;;;;;;19.46;100.00;99450.41;5008194;28;20127;-63
2023/07/28 02:53:37;;;;;;;0.30;0.30;;;;;;;19.47;100.00;99449.94;5051446;28;20517;-64
2023/07/28 02:56:02;;;;;;;0.70;0.55;;;;;;;19.47;100.00;99454.66;5005674;28;20581;-65
2023/07/28 02:58:28;;;;;;;0.50;0.40;;;;;;;19.47;100.00;99452.69;5075564;28;20629;-65
2023/07/28 03:00:53;;;;;;;0.82;0.75;;;;;;;19.46;100.00;99456.63;5069599;28;20042;-64
2023/07/28 03:03:27;;;;;;;0.45;0.30;;;;;;;19.46;100.00;99469.53;5075763;28;20041;-65
2023/07/28 03:05:53;;;;;;;0.70;0.43;;;;;;;19.47;100.00;99471.06;5067101;28;20027;-64
2023/07/28 03:08:24;;;;;;;;;;;;;;;19.47;100.00;99471.81;5045670;28;20044;-63
2023/07/28 03:10:50;;;;;;;0.57;0.35;;;;;;;19.46;100.00;99475.75;5027937;28;19914;-63
2023/07/28 03:13:15;;;;;;;0.80;0.80;;;;;;;19.47;100.00;99479.25;5066237;28;20030;-63
2023/07/28 03:15:41;;;;;;;0.43;0.40;;;;;;;19.45;100.00;99487.88;5026179;28;20083;-64
2023/07/28 03:18:06;;;;;;;1.70;0.93;;;;;;;19.45;100.00;99501.53;5058461;28;20726;-63
2023/07/28 03:20:32;;;;;;;1.10;0.52;;;;;;;19.47;100.00;99499.13;5075713;28;20049;-62
2023/07/28 03:22:57;;;;;;;1.13;0.50;;;;;;;19.46;100.00;99499.56;5067778;28;20037;-63
2023/07/28 03:25:23;;;;;;;1.05;0.80;;;;;;;19.45;100.00;99501.53;5065289;28;20223;-63
2023/07/28 03:27:48;;;;;;;1.17;0.57;;;;;;;19.45;100.00;99501.53;5074958;28;20022;-64
2023/07/28 03:30:14;;;;;;;0.80;0.43;;;;;;;19.45;100.00;99504.25;5003529;28;20034;-64
2023/07/28 03:32:39;;;;;;;0.90;0.52;;;;;;;19.44;100.00;99501.97;4996183;28;20401;-62
2023/07/28 03:35:09;;;;;;;0.65;0.40;;;;;;;19.45;100.00;99501.53;5004736;28;20070;-65
2023/07/28 03:37:39;;;;;;;0.63;0.40;;;;;;;19.46;100.00;99496.81;5073826;28;20033;-64
2023/07/28 03:40:05;;;;;;;0.50;0.45;;;;;;;19.46;100.00;99500.34;5051485;28;20294;-64
2023/07/28 03:42:40;;;;;;;1.02;0.43;;;;;;;19.43;100.00;99503.97;5036360;28;20079;-63
2023/07/28 03:45:06;;;;;;;0.70;0.50;;;;;;;19.41;100.00;99489.22;5007051;28;20033;-64
2023/07/28 03:47:31;;;;;;;0.35;0.32;;;;;;;19.41;100.00;99487.25;5063306;28;20491;-63
2023/07/28 03:49:57;;;;;;;0.40;0.40;;;;;;;19.41;100.00;99491.94;5036285;28;20071;-64
2023/07/28 03:52:22;;;;;;;1.15;0.50;;;;;;;19.41;100.00;99492.72;5069965;28;20047;-64
2023/07/28 03:54:48;;;;;;;0.45;0.32;;;;;;;19.42;100.00;99498.91;5066254;28;20041;-64
2023/07/28 03:57:13;;;;;;;0.52;0.52;;;;;;;19.40;100.00;99493.91;5003015;28;20025;-63
2023/07/28 03:59:38;;;;;;;0.30;0.30;;;;;;;19.43;100.00;99497.72;5009845;28;20125;-62
2023/07/28 04:02:04;;;;;;;0.70;0.40;;;;;;;19.43;100.00;99495.00;5000080;28;20044;-63
2023/07/28 04:04:30;;;;;;;0.40;0.30;;;;;;;19.40;100.00;99498.59;5051376;28;20026;-65
2023/07/28 04:06:55;;;;;;;0.28;0.20;;;;;;;19.38;100.00;99501.78;5010501;28;20038;-63
2023/07/28 04:09:41;;;;;;;0.95;0.50;;;;;;;19.34;100.00;99511.28;5004980;28;20050;-65
2023/07/28 04:12:07;;;;;;;0.43;0.40;;;;;;;19.34;100.00;99511.28;4996304;28;20038;-64
2023/07/28 04:14:32;;;;;;;0.35;0.30;;;;;;;19.33;100.00;99504.31;4993557;28;20524;-63
2023/07/28 04:16:58;;;;;;;0.52;0.35;;;;;;;19.34;100.00;99514.00;4989749;28;20104;-64
2023/07/28 04:19:23;;;;;;;0.45;0.35;;;;;;;19.33;100.00;99521.47;4976207;28;20041;-63
2023/07/28 04:21:49;;;;;;;0.60;0.40;;;;;;;19.35;100.00;99519.06;4997466;28;20061;-63
2023/07/28 04:24:14;;;;;;;1.17;0.60;;;;;;;19.37;100.00;99524.84;4981055;28;20460;-63
2023/07/28 04:26:48;;;;;;;0.22;0.20;;;;;;;19.38;100.00;99531.81;4979431;28;20062;-62
2023/07/28 04:29:14;;;;;;;0.70;0.50;;;;;;;19.37;100.00;99526.81;4983152;28;20046;-63
2023/07/28 04:31:39;;;;;;;1.38;0.73;;;;;;;19.43;100.00;99533.22;4970648;28;20022;-64
2023/07/28 04:34:08;;;;;;;0.38;0.38;;;;;;;19.45;100.00;99536.28;4958568;28;20443;-62
2023/07/28 04:36:54;;;;;;;0.35;0.30;;;;;;;19.45;100.00;99547.22;4997824;28;20038;-64
2023/07/28 04:39:23;;;;;;;0.32;0.25;;;;;;;19.47;100.00;99553.75;4978100;28;20633;-62
2023/07/28 04:41:49;;;;;;;0.30;0.25;;;;;;;19.50;100.00;99550.13;4959878;28;20085;-62
2023/07/28 04:44:15;;;;;;;0.38;0.20;;;;;;;19.49;100.00;99550.59;4976743;28;20451;-62
2023/07/28 04:46:43;;;;;;;0.32;0.32;;;;;;;19.49;100.00;99556.78;4978156;28;20084;-62
2023/07/28 04:49:12;;;;;;;0.35;0.30;;;;;;;19.48;100.00;99551.78;5031346;28;20038;-62
2023/07/28 04:51:56;;;;;;;0.93;0.43;;;;;;;19.49;100.00;99556.06;5060074;28;21519;-62
2023/07/28 04:54:30;;;;;;;0.40;0.25;;;;;;;19.47;100.00;99570.13;5000162;28;20125;-62
2023/07/28 04:56:56;;;;;;;0.40;0.40;;;;;;;19.50;100.00;99560.28;5032811;28;20578;-63
2023/07/28 04:59:28;;;;;;;0.20;0.20;;;;;;;19.51;100.00;99565.31;5070224;28;20061;-62
2023/07/28 05:01:53;;;;;;;0.50;0.43;;;;;;;19.52;100.00;99563.34;5072262;28;20061;-62
2023/07/28 05:04:19;;;;;;;0.85;0.63;;;;;;;19.55;100.00;99568.69;5008306;28;20034;-62
2023/07/28 05:06:44;;;;;;;0.52;0.50;;;;;;;19.58;100.00;99572.50;5077687;28;20513;-62
2023/07/28 05:09:10;;;;;;;0.40;0.30;;;;;;;19.57;100.00;99574.47;5001451;28;20026;-62
2023/07/28 05:11:35;;;;;;;0.93;0.70;;;;;;;19.59;100.00;99576.75;5037200;28;20030;-64
2023/07/28 05:14:01;;;;;;;0.50;0.50;;;;;;;19.61;100.00;99577.09;5037410;28;20022;-64
2023/07/28 05:16:27;;;;;;;0.50;0.50;;;;;;;19.61;100.00;99575.13;5057032;28;20386;-64
2023/07/28 05:19:03;;;;;;;1.33;0.50;;;;;;;19.64;100.00;99571.53;4991934;28;20041;-62
2023/07/28 05:21:49;;;;;;;0.45;0.45;;;;;;;19.66;100.00;99560.91;5012269;28;20487;-62
2023/07/28 05:24:17;;;;;;;0.25;0.20;;;;;;;19.73;100.00;99568.84;5061238;28;20076;-61
2023/07/28 05:26:43;;;;;;;0.52;0.40;;;;;;;19.77;100.00;99571.47;5087247;28;20026;-62
2023/07/28 05:29:09;;;;;;;0.73;0.50;;;;;;;19.76;100.00;99576.16;5037310;28;20414;-62
2023/07/28 05:31:35;;;;;;;0.43;0.40;;;;;;;19.78;100.00;99581.94;5004309;28;20137;-63
2023/07/28 05:34:03;;;;;;;0.68;0.45;;;;;;;19.80;100.00;99587.00;5063310;28;20022;-64
2023/07/28 05:36:29;;;;;;;0.60;0.30;;;;;;;19.82;100.00;99594.72;5032939;28;20129;-63
2023/07/28 05:38:58;;;;;;;2.42;0.70;;;;;;;19.86;100.00;99589.91;5077152;28;20025;-62
2023/07/28 05:41:28;;;;;;;0.57;0.35;;;;;;;19.85;100.00;99591.09;5072734;28;20541;-63
2023/07/28 05:43:53;;;;;;;0.75;0.60;;;;;;;19.82;100.00;99594.72;5004284;28;20030;-63
2023/07/28 05:46:19;;;;;;;0.60;0.30;;;;;;;19.82;100.00;99590.03;5063771;28;20030;-63
2023/07/28 05:48:45;;;;;;;0.90;0.47;;;;;;;19.86;100.00;99592.66;5087606;28;20030;-64
2023/07/28 05:51:10;;;;;;;1.02;0.40;;;;;;;19.92;100.00;99599.06;4996422;28;20064;-61
2023/07/28 05:53:36;;;;;;;0.40;0.38;;;;;;;19.97;100.00;99602.00;5042793;28;20108;-62
2023/07/28 05:56:04;;;;;;;0.50;0.45;;;;;;;20.01;100.00;99599.13;5065574;28;20030;-63
2023/07/28 05:58:32;;;;;;;0.85;0.40;;;;;;;20.03;100.00;99602.97;5091661;28;20026;-62
2023/07/28 06:00:58;;;;;;;0.60;0.30;;;;;;;20.11;100.00;99611.66;5067715;28;20075;-62
2023/07/28 06:03:43;;;;;;;0.50;0.32;;;;;;;20.16;100.00;99605.63;5007408;28;20499;-62
2023/07/28 06:06:18;;;;;;;1.08;0.57;;;;;;;20.18;100.00;99597.75;5061640;28;20167;-62
2023/07/28 06:08:44;;;;;;;0.95;0.60;;;;;;;20.18;100.00;99606.75;5004240;28;20124;-61
2023/07/28 06:11:09;;;;;;;0.60;0.40;;;;;;;20.18;100.00;99612.22;5004335;28;20104;-62
2023/07/28 06:13:35;;;;;;;0.85;0.52;;;;;;;20.21;100.00;99616.78;5046965;28;20147;-62
2023/07/28 06:16:01;;;;;;;1.10;0.73;;;;;;;20.20;100.00;99625.44;5076218;28;20040;-63
2023/07/28 06:18:27;;;;;;;0.52;0.40;;;;;;;20.27;100.00;99628.66;5067004;28;20105;-62
2023/07/28 06:21:04;;;;;;;0.28;0.28;;;;;;;20.36;100.00;99614.31;5042630;28;20034;-62
2023/07/28 06:23:30;;;;;;;0.40;0.40;;;;;;;20.42;100.00;99621.47;5075461;28;20045;-63
2023/07/28 06:25:56;;;;;;;0.82;0.57;;;;;;;20.47;100.00;99631.09;5076162;28;20026;-63
2023/07/28 06:28:22;;;;;;;0.68;0.60;;;;;;;20.48;100.00;99624.38;5055256;28;20036;-62
2023/07/28 06:30:53;;;;;;;2.22;0.55;;;;;;;20.58;100.00;99631.44;5037565;28;20028;-63
2023/07/28 06:33:19;;;;;;;0.55;0.43;;;;;;;20.59;100.00;99630.25;5069399;28;20032;-64
2023/07/28 06:35:44;;;;;;;0.82;0.38;;;;;;;20.67;100.00;99635.00;5002935;28;20406;-63
2023/07/28 06:38:10;;;;;;;0.60;0.45;;;;;;;20.69;100.00;99635.31;5008171;28;20074;-63
2023/07/28 06:40:36;;;;;;;1.20;0.63;;;;;;;20.71;100.00;99643.09;5007680;28;20048;-62
2023/07/28 06:43:01;;;;;;;0.70;0.47;;;;;;;20.79;100.00;99644.34;5070033;28;20117;-62
2023/07/28 06:45:27;;;;;;;0.50;0.30;;;;;;;20.86;100.00;99652.28;4994071;28;20112;-63
2023/07/28 06:47:52;;;;;;;0.63;0.50;;;;;;;20.93;100.00;99662.19;5039135;28;20033;-64
2023/07/28 06:50:19;;;;;;;0.63;0.35;;;;;;;21.02;100.00;99662.28;4997439;28;20029;-62
2023/07/28 06:52:46;;;;;;;0.52;0.40;;;;;;;20.99;99.68;99654.94;5000378;28;20467;-63
2023/07/28 06:55:12;;;;;;;0.77;0.40;;;;;;;20.97;99.02;99662.84;5003764;28;20083;-62
2023/07/28 06:57:37;;;;;;;0.77;0.57;;;;;;;20.96;98.85;99667.56;5008299;28;20029;-62
2023/07/28 07:00:03;;;;;;;1.33;0.80;;;;;;;20.93;98.57;99652.03;4995669;28;20068;-62
2023/07/28 07:02:29;;;;;;;1.08;0.75;;;;;;;20.89;98.13;99659.59;5006784;28;20498;-62
2023/07/28 07:04:54;;;;;;;0.98;0.77;;;;;;;20.87;98.02;99651.06;5003178;28;20041;-63
2023/07/28 07:07:20;;;;;;;0.60;0.60;;;;;;;20.87;97.45;99661.25;5002674;28;20050;-63
2023/07/28 07:09:45;;;;;;;1.13;0.80;;;;;;;20.86;97.39;99667.94;5006756;28;20033;-63
2023/07/28 07:12:11;;;;;;;0.85;0.68;;;;;;;20.80;97.65;99659.56;5059142;28;20399;-62
2023/07/28 07:14:36;;;;;;;0.75;0.60;;;;;;;20.89;97.49;99680.72;5007142;28;20033;-62
2023/07/28 07:17:02;;;;;;;0.82;0.65;;;;;;;20.82;97.83;99678.28;4999211;28;20053;-61
2023/07/28 07:19:29;;;;;;;0.60;0.60;;;;;;;20.80;97.09;99684.19;5004415;28;20032;-64
2023/07/28 07:21:54;;;;;;;0.80;0.50;;;;;;;20.82;97.36;99689.22;5032911;28;20040;-63
2023/07/28 07:24:21;;;;;;;0.68;0.60;;;;;;;20.81;97.67;99695.91;5007380;28;20043;-62
2023/07/28 07:26:46;;;;;;;0.75;0.57;;;;;;;20.85;97.97;99696.56;4996985;28;20026;-63
2023/07/28 07:29:12;;;;;;;0.90;0.65;;;;;;;20.82;97.36;99698.22;5007520;28;20046;-64
2023/07/28 07:31:38;;;;;;;1.02;0.60;;;;;;;20.81;97.59;99704.88;5002579;28;20618;-63
2023/07/28 07:34:04;;;;;;;1.13;0.60;;;;;;;20.85;97.98;99710.97;5001349;28;20386;-62
2023/07/28 07:36:29;;;;;;;0.75;0.68;;;;;;;20.87;97.70;99710.53;5010569;28;20113;-63
2023/07/28 07:38:55;;;;;;;0.90;0.60;;;;;;;20.94;97.60;99708.31;4999850;28;20038;-63
2023/07/28 07:41:22;;;;;;;0.80;0.80;;;;;;;20.94;98.01;99713.03;5010872;28;20402;-63
2023/07/28 07:43:49;;;;;;;0.55;0.40;;;;;;;20.88;97.48;99718.31;5003650;28;20049;-61
2023/07/28 07:46:16;;;;;;;0.55;0.55;;;;;;;20.98;97.82;99713.66;5077424;28;20037;-65
2023/07/28 07:48:42;;;;;;;0.40;0.40;;;;;;;21.00;97.09;99714.72;5001039;28;20038;-62
2023/07/28 07:51:08;;;;;;;0.43;0.40;;;;;;;21.00;97.52;99731.16;5062075;28;20026;-61
2023/07/28 07:53:34;;;;;;;1.08;0.57;;;;;;;20.96;97.29;99733.28;5009844;28;20038;-62
2023/07/28 07:55:59;;;;;;;0.52;0.35;;;;;;;20.94;97.78;99738.44;4995304;28;20596;-62
2023/07/28 07:58:25;;;;;;;1.05;0.52;;;;;;;20.97;97.94;99734.78;5007666;28;20036;-63
2023/07/28 08:00:50;;;;;;;1.10;0.68;;;;;;;20.89;97.18;99735.50;5004102;28;20471;-62
2023/07/28 08:03:15;;;;;;;1.33;0.60;;;;;;;20.85;97.34;99738.34;5068632;28;20046;-62
2023/07/28 08:05:41;;;;;;;0.75;0.57;;;;;;;20.87;96.85;99738.69;4999980;28;20045;-63
2023/07/28 08:08:07;;;;;;;1.02;0.57;;;;;;;20.90;97.18;99740.53;5002520;28;20577;-63
2023/07/28 08:10:33;;;;;;;0.82;0.63;;;;;;;20.92;97.10;99746.34;5003310;28;20041;-62
2023/07/28 08:12:59;;;;;;;0.82;0.60;;;;;;;20.92;97.01;99742.81;5002623;28;20518;-62
2023/07/28 08:15:25;;;;;;;1.52;0.82;;;;;;;20.94;95.95;99743.91;5009110;28;20420;-62
2023/07/28 08:17:52;;;;;;;1.42;1.33;;;;;;;21.02;96.16;99744.44;5010020;28;20075;-61
2023/07/28 08:20:17;;;;;;;0.70;0.50;;;;;;;21.12;96.40;99748.75;5008838;28;20034;-62
2023/07/28 08:22:43;;;;;;;1.10;0.77;;;;;;;21.20;96.43;99750.78;4997094;28;20554;-62
2023/07/28 08:25:08;;;;;;;0.43;0.43;;;;;;;21.28;96.29;99749.28;5051061;28;20083;-62
2023/07/28 08:27:34;;;;;;;0.82;0.68;;;;;;;21.31;96.45;99756.59;5010139;28;20409;-64
2023/07/28 08:29:59;;;;;;;0.47;0.47;;;;;;;21.25;95.71;99752.91;4994854;28;20107;-62
2023/07/28 08:32:25;;;;;;;0.68;0.63;;;;;;;21.29;95.99;99767.25;5009114;28;20042;-61
2023/07/28 08:34:50;;;;;;;0.90;0.55;;;;;;;21.30;96.02;99766.03;5009885;28;20490;-62
2023/07/28 08:37:16;;;;;;;0.82;0.70;;;;;;;21.31;95.41;99773.03;5000984;28;20034;-63
2023/07/28 08:39:41;;;;;;;0.70;0.65;;;;;;;21.30;95.60;99774.28;5006903;28;20042;-63
2023/07/28 08:42:06;;;;;;;0.85;0.43;;;;;;;21.36;95.59;99777.19;5008751;28;20393;-63
2023/07/28 08:44:33;;;;;;;0.57;0.47;;;;;;;21.36;94.82;99774.44;5009446;28;20030;-63
2023/07/28 08:47:06;;;;;;;1.00;0.65;;;;;;;21.33;95.81;99784.31;5001919;28;20042;-62
2023/07/28 08:49:35;;;;;;;0.80;0.80;;;;;;;21.41;95.30;99785.59;5009043;28;20107;-60
2023/07/28 08:52:01;;;;;;;0.50;0.50;;;;;;;21.38;95.11;99788.47;5009022;28;20577;-63
2023/07/28 08:54:27;;;;;;;1.23;0.50;;;;;;;21.38;94.75;99794.72;5007433;28;20049;-63
2023/07/28 08:56:53;;;;;;;0.68;0.57;;;;;;;21.40;94.73;99791.50;4999251;28;20398;-63
2023/07/28 08:59:27;;;;;;;2.50;0.40;;;;;;;21.44;94.65;99798.41;5009693;28;20036;-63
2023/07/28 09:01:55;;;;;;;0.40;0.40;;;;;;;21.46;94.98;99798.72;4995597;28;20125;-64
2023/07/28 09:04:22;;;;;;;0.50;0.45;;;;;;;21.33;95.51;99798.00;5008340;28;20109;-63
2023/07/28 09:06:49;;;;;;;0.70;0.70;;;;;;;21.40;95.50;99797.78;5009889;28;20390;-63
2023/07/28 09:09:15;;;;;;;0.30;0.30;;;;;;;21.43;94.90;99799.59;5004938;28;20037;-64
2023/07/28 09:11:45;;;;;;;1.20;0.65;;;;;;;21.49;95.20;99800.53;5001246;28;20091;-64
2023/07/28 09:14:13;;;;;;;0.57;0.43;;;;;;;21.57;95.25;99801.03;5009102;28;20057;-63
2023/07/28 09:16:39;;;;;;;0.80;0.60;;;;;;;21.62;94.97;99788.72;5009413;28;20390;-63
2023/07/28 09:19:06;;;;;;;0.50;0.50;;;;;;;21.68;94.87;99795.16;4998536;28;20513;-63
2023/07/28 09:21:33;;;;;;;0.68;0.52;;;;;;;21.68;95.01;99787.66;5005051;28;20042;-63
2023/07/28 09:24:06;;;;;;;0.95;0.70;;;;;;;21.78;94.55;99788.47;5008426;28;20029;-63
2023/07/28 09:26:38;;;;;;;1.02;0.60;;;;;;;21.85;94.69;99799.19;4998017;28;20663;-63
2023/07/28 09:29:18;;;;;;;0.73;0.43;;;;;;;21.92;93.11;99804.38;5008662;28;20042;-62
2023/07/28 09:31:44;;;;;;;0.50;0.50;;;;;;;21.93;92.42;99803.19;5008524;28;20030;-64
2023/07/28 09:34:11;;;;;;;0.73;0.50;;;;;;;22.00;92.73;99802.91;4999525;28;20030;-62
2023/07/28 09:36:40;;;;;;;0.75;0.50;;;;;;;22.09;92.16;99800.94;5006000;28;20097;-63
2023/07/28 09:39:09;;;;;;;0.75;0.50;;;;;;;22.09;92.23;99808.41;4999504;28;20120;-63
2023/07/28 09:41:38;;;;;;;0.40;0.40;;;;;;;22.10;92.28;99805.22;5004896;28;20034;-64
2023/07/28 09:44:05;;;;;;;0.57;0.55;;;;;;;22.18;91.59;99808.44;5001607;28;20451;-62
2023/07/28 09:46:35;;;;;;;0.40;0.30;;;;;;;22.22;91.67;99812.53;5008963;28;20033;-63
2023/07/28 09:49:12;;;;;;;0.57;0.45;;;;;;;22.23;92.06;99813.31;5007536;28;20029;-64
2023/07/28 09:51:40;;;;;;;0.43;0.40;;;;;;;22.34;91.83;99811.66;5001876;28;20046;-63
2023/07/28 09:54:12;;;;;;;0.57;0.47;;;;;;;22.39;92.26;99822.06;5006318;28;20029;-63
2023/07/28 09:56:38;;;;;;;0.50;0.50;;;;;;;22.34;91.06;99813.63;4998812;28;20069;-61
2023/07/28 09:59:11;;;;;;;1.58;0.40;;;;;;;22.42;91.36;99807.41;5008446;28;20531;-61
2023/07/28 10:01:38;;;;;;;0.43;0.40;;;;;;;22.55;90.41;99812.75;4997487;28;20042;-61
2023/07/28 10:04:05;;;;;;;0.50;0.50;;;;;;;22.70;90.80;99812.94;5007566;28;20017;-61
2023/07/28 10:06:32;;;;;;;0.60;0.45;;;;;;;22.84;90.39;99817.84;5008768;28;20041;-59
2023/07/28 10:08:57;;;;;;;0.50;0.40;;;;;;;22.92;90.17;99816.28;5002684;28;20056;-61
2023/07/28 10:11:23;;;;;;;0.45;0.45;;;;;;;22.98;90.04;99819.94;5005238;28;20018;-61
2023/07/28 10:13:51;;;;;;;0.88;0.47;;;;;;;23.05;89.70;99812.13;5007800;28;20041;-61
2023/07/28 10:16:17;;;;;;;0.65;0.50;;;;;;;23.20;88.22;99812.28;4998044;28;20116;-62
2023/07/28 10:18:53;;;;;;;0.43;0.43;;;;;;;23.11;87.36;99823.31;5005310;28;20163;-61
2023/07/28 10:21:19;;;;;;;1.08;0.73;;;;;;;23.15;87.80;99827.41;5059850;28;20045;-64
2023/07/28 10:23:45;;;;;;;0.70;0.57;;;;;;;23.18;88.08;99828.47;4997027;28;20123;-61
2023/07/28 10:26:10;;;;;;;0.70;0.50;;;;;;;23.18;88.00;99826.50;5007690;28;20042;-62
2023/07/28 10:28:43;;;;;;;2.03;0.60;;;;;;;23.16;87.70;99836.41;5008610;28;20065;-61
2023/07/28 10:31:11;;;;;;;0.43;0.43;;;;;;;23.15;88.06;99827.41;4999022;28;20064;-61
2023/07/28 10:33:38;;;;;;;0.70;0.40;;;;;;;23.23;88.22;99834.09;5003643;28;20117;-62
2023/07/28 10:36:22;;;;;;;0.70;0.50;;;;;;;23.32;88.43;99838.88;5006663;28;20037;-63
2023/07/28 10:39:00;;;;;;;1.50;0.43;;;;;;;23.38;88.11;99831.53;4997057;28;20038;-61
2023/07/28 10:41:25;;;;;;;0.60;0.40;;;;;;;23.41;87.04;99843.56;5002632;28;20034;-61
2023/07/28 10:43:51;;;;;;;0.47;0.40;;;;;;;23.52;86.82;99844.59;5000922;28;20861;-61
2023/07/28 10:46:20;;;;;;;0.40;0.40;;;;;;;23.57;86.13;99840.47;5001624;28;20080;-62
2023/07/28 10:48:48;;;;;;;0.30;0.30;;;;;;;23.58;85.53;99836.50;5006851;28;20034;-63
2023/07/28 10:51:31;;;;;;;0.60;0.45;;;;;;;23.59;85.87;99843.53;5008126;28;20022;-61
2023/07/28 10:53:57;;;;;;;1.33;0.65;;;;;;;23.46;85.89;99853.97;4990740;28;20484;-61
2023/07/28 10:56:23;;;;;;;0.77;0.60;;;;;;;23.53;84.96;99859.13;5007245;28;20041;-62
2023/07/28 10:59:15;;;;;;;1.25;0.88;;;;;;;23.35;85.36;99851.69;5007695;28;20049;-62
2023/07/28 11:01:42;;;;;;;1.38;0.85;;;;;;;23.22;86.80;99851.84;4999036;28;20050;-61
2023/07/28 11:04:13;;;;;;;2.45;1.00;;;;;;;23.24;86.68;99848.63;5000710;28;20037;-61
2023/07/28 11:06:44;;;;;;;1.88;1.05;;;;;;;23.25;86.88;99850.91;4997197;28;20465;-61
2023/07/28 11:09:10;;;;;;;1.20;0.90;;;;;;;23.43;87.22;99847.38;5005526;28;20030;-63
2023/07/28 11:11:38;;;;;;;0.90;0.80;;;;;;;23.66;87.09;99843.19;5002136;28;20402;-62
2023/07/28 11:14:08;;;;;;;0.73;0.65;;;;;;;24.07;86.47;99836.94;5001244;28;20060;-63
2023/07/28 11:16:41;;;;;;;0.85;0.65;;;;;;;24.57;85.37;99849.03;5010856;28;20048;-62
2023/07/28 11:19:16;;;;;;;1.25;0.85;;;;;;;24.85;83.78;99848.38;5011354;28;20431;-62
2023/07/28 11:21:42;;;;;;;1.05;0.88;;;;;;;24.85;81.10;99859.38;5000019;28;20038;-61
2023/07/28 11:24:08;;;;;;;0.77;0.50;;;;;;;24.79;80.78;99857.78;5043954;28;20508;-62
2023/07/28 11:26:38;;;;;;;1.02;0.68;;;;;;;24.80;80.99;99851.00;5007091;28;20148;-61
2023/07/28 11:29:04;;;;;;;0.40;0.30;;;;;;;24.80;81.52;99851.78;5003985;28;20386;-61
2023/07/28 11:31:30;;;;;;;0.57;0.50;;;;;;;24.90;81.32;99850.47;5011036;28;20026;-62